sensor_id;sensor_type;location;lat;lon;timestamp;pressure;altitude;pressure_sealevel;temperature;humidity
24868;BME280;12941;48.698;9.310;2023-07-29T00:00:32;97471;;;23.11;75.765
24868;BME280;12941;48.698;9.310;2023-07-29T00:01:33;97469.4;;;23.1;75.795
24868;BME280;12941;48.698;9.310;2023-07-29T00:02:37;97465.3;;;23.08;75.803
24868;BME280;12941;48.698;9.310;2023-07-29T00:03:42;97471.5;;;23.07;75.724
24868;BME280;12941;48.698;9.310;2023-07-29T00:04:42;97466.5;;;23.05;75.842
24868;BME280;12941;48.698;9.310;2023-07-29T00:05:47;97457.8;;;23.05;76.019
24868;BME280;12941;48.698;9.310;2023-07-29T00:06:47;97457.2;;;23.03;76.126
24868;BME280;12941;48.698;9.310;2023-07-29T00:07:52;97452.8;;;23.03;76.17
24868;BME280;12941;48.698;9.310;2023-07-29T00:08:57;97447.5;;;23.03;76.093
24868;BME280;12941;48.698;9.310;2023-07-29T00:09:57;97446.5;;;23.04;76.061
24868;BME280;12941;48.698;9.310;2023-07-29T00:11:02;97446.5;;;23.04;76.127
24868;BME280;12941;48.698;9.310;2023-07-29T00:12:02;97453.4;;;23.05;76.14
24868;BME280;12941;48.698;9.310;2023-07-29T00:13:07;97442.9;;;23.05;76.206
24868;BME280;12941;48.698;9.310;2023-07-29T00:14:07;97441.09999999999;;;23.06;76.085
24868;BME280;12941;48.698;9.310;2023-07-29T00:15:07;97439.3;;;23.06;76.296
24868;BME280;12941;48.698;9.310;2023-07-29T00:16:12;97435.1;;;23.05;76.294
24868;BME280;12941;48.698;9.310;2023-07-29T00:17:12;97436.7;;;23.06;76.307
24868;BME280;12941;48.698;9.310;2023-07-29T00:18:12;97437.7;;;23.05;76.272
24868;BME280;12941;48.698;9.310;2023-07-29T00:19:17;97438.3;;;23.07;76.188
24868;BME280;12941;48.698;9.310;2023-07-29T00:20:17;97434.1;;;23.06;76.086
24868;BME280;12941;48.698;9.310;2023-07-29T00:21:22;97438.3;;;23.07;76.122
24868;BME280;12941;48.698;9.310;2023-07-29T00:22:22;97438.3;;;23.07;76.001
24868;BME280;12941;48.698;9.310;2023-07-29T00:23:27;97432.1;;;23.08;76.023
24868;BME280;12941;48.698;9.310;2023-07-29T00:24:32;97440.9;;;23.07;75.847
24868;BME280;12941;48.698;9.310;2023-07-29T00:25:32;97442.1;;;23.05;75.721
24868;BME280;12941;48.698;9.310;2023-07-29T00:26:32;97441;;;22.99;75.665
24868;BME280;12941;48.698;9.310;2023-07-29T00:27:37;97437.8;;;22.97;75.552
24868;BME280;12941;48.698;9.310;2023-07-29T00:28:42;97443.3;;;22.94;75.646
24868;BME280;12941;48.698;9.310;2023-07-29T00:29:42;97441.7;;;22.93;75.755
24868;BME280;12941;48.698;9.310;2023-07-29T00:30:47;97431.6;;;22.9;75.685
24868;BME280;12941;48.698;9.310;2023-07-29T00:31:52;97442.2;;;22.89;75.868
24868;BME280;12941;48.698;9.310;2023-07-29T00:32:52;97436.8;;;22.9;76.093
24868;BME280;12941;48.698;9.310;2023-07-29T00:33:57;97431.6;;;22.9;75.982
24868;BME280;12941;48.698;9.310;2023-07-29T00:34:57;97436;;;22.9;76.157
24868;BME280;12941;48.698;9.310;2023-07-29T00:35:57;97443;;;22.89;76.212
24868;BME280;12941;48.698;9.310;2023-07-29T00:37:02;97433.6;;;22.88;76.111
24868;BME280;12941;48.698;9.310;2023-07-29T00:38:02;97437.2;;;22.87;76.011
24868;BME280;12941;48.698;9.310;2023-07-29T00:39:07;97435.5;;;22.86;76.042
24868;BME280;12941;48.698;9.310;2023-07-29T00:40:13;97432.1;;;22.86;76.217
24868;BME280;12941;48.698;9.310;2023-07-29T00:41:12;97431.1;;;22.87;76.108
24868;BME280;12941;48.698;9.310;2023-07-29T00:42:17;97433.90000000001;;;22.85;76.237
24868;BME280;12941;48.698;9.310;2023-07-29T00:43:17;97432.9;;;22.86;76.219
24868;BME280;12941;48.698;9.310;2023-07-29T00:44:17;97431.9;;;22.87;76.198
24868;BME280;12941;48.698;9.310;2023-07-29T00:45:22;97434.5;;;22.87;76.099
24868;BME280;12941;48.698;9.310;2023-07-29T00:46:25;97433.7;;;22.87;76.307
24868;BME280;12941;48.698;9.310;2023-07-29T00:47:27;97427.70000000001;;;22.86;76.097
24868;BME280;12941;48.698;9.310;2023-07-29T00:48:32;97426.09999999999;;;22.85;76.083
24868;BME280;12941;48.698;9.310;2023-07-29T00:49:37;97422.6;;;22.85;76.204
24868;BME280;12941;48.698;9.310;2023-07-29T00:50:42;97423.6;;;22.84;76.181
24868;BME280;12941;48.698;9.310;2023-07-29T00:51:42;97415;;;22.83;76.168
24868;BME280;12941;48.698;9.310;2023-07-29T00:52:48;97421.8;;;22.84;76.304
24868;BME280;12941;48.698;9.310;2023-07-29T00:53:52;97427;;;22.84;76.513
24868;BME280;12941;48.698;9.310;2023-07-29T00:54:57;97428.7;;;22.85;76.281
24868;BME280;12941;48.698;9.310;2023-07-29T00:55:57;97432.3;;;22.84;76.369
24868;BME280;12941;48.698;9.310;2023-07-29T00:57:02;97435.90000000001;;;22.83;76.443
24868;BME280;12941;48.698;9.310;2023-07-29T00:58:02;97428.2;;;22.82;76.431
24868;BME280;12941;48.698;9.310;2023-07-29T00:59:03;97426.59999999999;;;22.81;76.341
24868;BME280;12941;48.698;9.310;2023-07-29T01:00:02;97430.2;;;22.79;76.361
24868;BME280;12941;48.698;9.310;2023-07-29T01:01:07;97426.09999999999;;;22.77;76.677
24868;BME280;12941;48.698;9.310;2023-07-29T01:02:12;97422.6;;;22.76;76.543
24868;BME280;12941;48.698;9.310;2023-07-29T01:03:12;97423.6;;;22.75;76.443
24868;BME280;12941;48.698;9.310;2023-07-29T01:04:17;97427;;;22.76;76.333
24868;BME280;12941;48.698;9.310;2023-07-29T01:05:17;97432.3;;;22.76;76.543
24868;BME280;12941;48.698;9.310;2023-07-29T01:06:23;97431.7;;;22.74;76.637
24868;BME280;12941;48.698;9.310;2023-07-29T01:07:23;97429.8;;;22.74;76.583
24868;BME280;12941;48.698;9.310;2023-07-29T01:08:26;97433.5;;;22.73;76.626
24868;BME280;12941;48.698;9.310;2023-07-29T01:09:29;97429;;;22.74;76.824
24868;BME280;12941;48.698;9.310;2023-07-29T01:10:30;97419.6;;;22.73;76.901
24868;BME280;12941;48.698;9.310;2023-07-29T01:11:35;97419.6;;;22.73;77.022
24868;BME280;12941;48.698;9.310;2023-07-29T01:12:35;97422;;;22.74;76.958
24868;BME280;12941;48.698;9.310;2023-07-29T01:13:45;97417.6;;;22.75;76.762
24868;BME280;12941;48.698;9.310;2023-07-29T01:14:44;97421.8;;;22.76;76.852
24868;BME280;12941;48.698;9.310;2023-07-29T01:15:43;97419.2;;;22.76;76.906
24868;BME280;12941;48.698;9.310;2023-07-29T01:16:50;97417;;;22.73;76.714
24868;BME280;12941;48.698;9.310;2023-07-29T01:17:48;97426.4;;;22.74;76.604
24868;BME280;12941;48.698;9.310;2023-07-29T01:18:52;97414.3;;;22.73;76.571
24868;BME280;12941;48.698;9.310;2023-07-29T01:19:55;97410.7;;;22.74;76.67
24868;BME280;12941;48.698;9.310;2023-07-29T01:20:53;97407.5;;;22.72;76.942
24868;BME280;12941;48.698;9.310;2023-07-29T01:21:57;97411.7;;;22.73;76.913
24868;BME280;12941;48.698;9.310;2023-07-29T01:22:57;97403.9;;;22.73;76.791
24868;BME280;12941;48.698;9.310;2023-07-29T01:24:03;97410.7;;;22.74;76.847
24868;BME280;12941;48.698;9.310;2023-07-29T01:25:03;97408.1;;;22.74;76.824
24868;BME280;12941;48.698;9.310;2023-07-29T01:26:07;97413.2;;;22.75;76.587
24868;BME280;12941;48.698;9.310;2023-07-29T01:27:12;97407.9;;;22.75;76.708
24868;BME280;12941;48.698;9.310;2023-07-29T01:28:12;97408.8;;;22.76;76.829
24868;BME280;12941;48.698;9.310;2023-07-29T01:29:17;97408.8;;;22.76;76.653
24868;BME280;12941;48.698;9.310;2023-07-29T01:30:18;97408.8;;;22.76;76.73
24868;BME280;12941;48.698;9.310;2023-07-29T01:31:19;97410.7;;;22.74;76.648
24868;BME280;12941;48.698;9.310;2023-07-29T01:32:19;97414.3;;;22.73;76.472
24868;BME280;12941;48.698;9.310;2023-07-29T01:33:23;97416.09999999999;;;22.72;76.569
24868;BME280;12941;48.698;9.310;2023-07-29T01:34:23;97400.59999999999;;;22.71;76.567
24868;BME280;12941;48.698;9.310;2023-07-29T01:35:28;97407;;;22.68;76.651
24868;BME280;12941;48.698;9.310;2023-07-29T01:36:28;97406.2;;;22.68;76.826
24868;BME280;12941;48.698;9.310;2023-07-29T01:37:29;97411.40000000001;;;22.68;76.958
24868;BME280;12941;48.698;9.310;2023-07-29T01:38:33;97409;;;22.66;76.923
24868;BME280;12941;48.698;9.310;2023-07-29T01:39:33;97412.40000000001;;;22.67;76.77
24868;BME280;12941;48.698;9.310;2023-07-29T01:40:38;97405.7;;;22.64;76.709
24868;BME280;12941;48.698;9.310;2023-07-29T01:41:37;97410.1;;;22.64;76.742
24868;BME280;12941;48.698;9.310;2023-07-29T01:42:43;97413.59999999999;;;22.64;76.853
24868;BME280;12941;48.698;9.310;2023-07-29T01:43:48;97412.8;;;22.64;76.83
24868;BME280;12941;48.698;9.310;2023-07-29T01:44:53;97421.40000000001;;;22.64;76.919
24868;BME280;12941;48.698;9.310;2023-07-29T01:45:53;97419;;;22.63;76.983
24868;BME280;12941;48.698;9.310;2023-07-29T01:46:54;97420.9;;;22.61;77.079
24868;BME280;12941;48.698;9.310;2023-07-29T01:47:58;97414.09999999999;;;22.6;77.221
24868;BME280;12941;48.698;9.310;2023-07-29T01:48:58;97416.7;;;22.6;77.089
24868;BME280;12941;48.698;9.310;2023-07-29T01:50:03;97412.09999999999;;;22.62;77.279
24868;BME280;12941;48.698;9.310;2023-07-29T01:51:08;97413.9;;;22.61;77.267
24868;BME280;12941;48.698;9.310;2023-07-29T01:52:08;97409.5;;;22.62;77.29
24868;BME280;12941;48.698;9.310;2023-07-29T01:53:13;97412.8;;;22.64;77.194
24868;BME280;12941;48.698;9.310;2023-07-29T01:54:13;97410.1;;;22.64;77.238
24868;BME280;12941;48.698;9.310;2023-07-29T01:55:18;97411.8;;;22.65;77.141
24868;BME280;12941;48.698;9.310;2023-07-29T01:56:18;97409.79999999999;;;22.67;77.221
24868;BME280;12941;48.698;9.310;2023-07-29T01:57:23;97416;;;22.66;77.208
24868;BME280;12941;48.698;9.310;2023-07-29T01:58:23;97404.4;;;22.68;77.136
24868;BME280;12941;48.698;9.310;2023-07-29T01:59:23;97406.2;;;22.68;77.156
24868;BME280;12941;48.698;9.310;2023-07-29T02:00:23;97397.40000000001;;;22.69;77.004
24868;BME280;12941;48.698;9.310;2023-07-29T02:01:23;97398.2;;;22.69;76.95
24868;BME280;12941;48.698;9.310;2023-07-29T02:02:28;97393.8;;;22.7;77.05
24868;BME280;12941;48.698;9.310;2023-07-29T02:03:28;97394.6;;;22.7;77.063
24868;BME280;12941;48.698;9.310;2023-07-29T02:04:28;97398;;;22.71;76.998
24868;BME280;12941;48.698;9.310;2023-07-29T02:05:28;97393.6;;;22.71;77.02
24868;BME280;12941;48.698;9.310;2023-07-29T02:06:28;97397.40000000001;;;22.69;77.092
24868;BME280;12941;48.698;9.310;2023-07-29T02:07:33;97399.8;;;22.7;77.14
24868;BME280;12941;48.698;9.310;2023-07-29T02:08:33;97396.2;;;22.71;77.174
24868;BME280;12941;48.698;9.310;2023-07-29T02:09:38;97387.59999999999;;;22.71;77.042
24868;BME280;12941;48.698;9.310;2023-07-29T02:10:38;97397;;;22.72;77.063
24868;BME280;12941;48.698;9.310;2023-07-29T02:11:38;97388.4;;;22.71;76.932
24868;BME280;12941;48.698;9.310;2023-07-29T02:12:38;97390.20000000001;;;22.71;77.053
24868;BME280;12941;48.698;9.310;2023-07-29T02:13:38;97391.8;;;22.72;76.777
24868;BME280;12941;48.698;9.310;2023-07-29T02:14:38;97391.8;;;22.72;76.7
24868;BME280;12941;48.698;9.310;2023-07-29T02:15:43;97388.2;;;22.73;76.791
24868;BME280;12941;48.698;9.310;2023-07-29T02:16:43;97390.20000000001;;;22.71;76.788
24868;BME280;12941;48.698;9.310;2023-07-29T02:17:49;97385;;;22.71;76.611
24868;BME280;12941;48.698;9.310;2023-07-29T02:18:48;97385;;;22.71;76.634
24868;BME280;12941;48.698;9.310;2023-07-29T02:19:53;97382.3;;;22.71;76.711
24868;BME280;12941;48.698;9.310;2023-07-29T02:20:58;97385;;;22.71;76.557
24868;BME280;12941;48.698;9.310;2023-07-29T02:21:58;97385;;;22.71;76.634
24868;BME280;12941;48.698;9.310;2023-07-29T02:23:03;97379.7;;;22.71;76.755
24868;BME280;12941;48.698;9.310;2023-07-29T02:24:03;97376.5;;;22.69;76.839
24868;BME280;12941;48.698;9.310;2023-07-29T02:25:08;97383.3;;;22.7;76.675
24868;BME280;12941;48.698;9.310;2023-07-29T02:26:13;97381.7;;;22.69;76.441
24868;BME280;12941;48.698;9.310;2023-07-29T02:27:13;97378.4;;;22.67;76.383
24868;BME280;12941;48.698;9.310;2023-07-29T02:28:18;97377.59999999999;;;22.66;76.615
24868;BME280;12941;48.698;9.310;2023-07-29T02:29:23;97376.8;;;22.66;76.635
24868;BME280;12941;48.698;9.310;2023-07-29T02:30:23;97375;;;22.66;76.57
24868;BME280;12941;48.698;9.310;2023-07-29T02:31:24;97380.2;;;22.66;76.516
24868;BME280;12941;48.698;9.310;2023-07-29T02:32:28;97377.8;;;22.65;76.634
24868;BME280;12941;48.698;9.310;2023-07-29T02:33:28;97375;;;22.66;76.725
24868;BME280;12941;48.698;9.310;2023-07-29T02:34:33;97382.9;;;22.66;76.736
24868;BME280;12941;48.698;9.310;2023-07-29T02:35:33;97374.90000000001;;;22.68;76.693
24868;BME280;12941;48.698;9.310;2023-07-29T02:36:38;97373.2;;;22.67;76.714
24868;BME280;12941;48.698;9.310;2023-07-29T02:37:38;97376.5;;;22.69;76.86
24868;BME280;12941;48.698;9.310;2023-07-29T02:38:38;97376.5;;;22.69;76.827
24868;BME280;12941;48.698;9.310;2023-07-29T02:39:38;97377.3;;;22.69;76.763
24868;BME280;12941;48.698;9.310;2023-07-29T02:40:43;97370.4;;;22.68;76.685
24868;BME280;12941;48.698;9.310;2023-07-29T02:41:43;97371.3;;;22.69;76.629
24868;BME280;12941;48.698;9.310;2023-07-29T02:42:48;97371.3;;;22.69;76.562
24868;BME280;12941;48.698;9.310;2023-07-29T02:43:49;97385.90000000001;;;22.7;76.675
24868;BME280;12941;48.698;9.310;2023-07-29T02:44:48;97384.5;;;22.67;76.395
24868;BME280;12941;48.698;9.310;2023-07-29T02:45:53;97379.4;;;22.66;76.305
24868;BME280;12941;48.698;9.310;2023-07-29T02:46:53;97372.7;;;22.63;76.311
24868;BME280;12941;48.698;9.310;2023-07-29T02:47:58;97371.90000000001;;;22.63;76.354
24868;BME280;12941;48.698;9.310;2023-07-29T02:48:58;97360;;;22.6;76.46
24868;BME280;12941;48.698;9.310;2023-07-29T02:49:59;97368.7;;;22.61;76.562
24868;BME280;12941;48.698;9.310;2023-07-29T02:50:59;97375.7;;;22.6;76.824
24868;BME280;12941;48.698;9.310;2023-07-29T02:52:04;97373.29999999999;;;22.59;76.768
24868;BME280;12941;48.698;9.310;2023-07-29T02:53:04;97377.70000000001;;;22.58;76.82
24868;BME280;12941;48.698;9.310;2023-07-29T02:54:04;97381.1;;;22.59;76.69
24868;BME280;12941;48.698;9.310;2023-07-29T02:55:08;97377;;;22.56;76.608
24868;BME280;12941;48.698;9.310;2023-07-29T02:56:08;97378.8;;;22.56;76.573
24868;BME280;12941;48.698;9.310;2023-07-29T02:57:09;97373.8;;;22.54;76.792
24868;BME280;12941;48.698;9.310;2023-07-29T02:58:09;97368.5;;;22.54;76.836
24868;BME280;12941;48.698;9.310;2023-07-29T02:59:14;97362.5;;;22.54;76.989
24868;BME280;12941;48.698;9.310;2023-07-29T03:00:19;97369.4;;;22.55;77.023
24868;BME280;12941;48.698;9.310;2023-07-29T03:01:19;97361.5;;;22.55;77.013
24868;BME280;12941;48.698;9.310;2023-07-29T03:02:24;97361.5;;;22.55;76.99
24868;BME280;12941;48.698;9.310;2023-07-29T03:03:24;97358.90000000001;;;22.55;76.99
24868;BME280;12941;48.698;9.310;2023-07-29T03:04:24;97358.90000000001;;;22.55;77.013
24868;BME280;12941;48.698;9.310;2023-07-29T03:05:24;97358.90000000001;;;22.55;77.023
24868;BME280;12941;48.698;9.310;2023-07-29T03:06:24;97357.3;;;22.54;76.978
24868;BME280;12941;48.698;9.310;2023-07-29T03:07:29;97356.3;;;22.55;77.035
24868;BME280;12941;48.698;9.310;2023-07-29T03:08:29;97357.3;;;22.54;76.835
24868;BME280;12941;48.698;9.310;2023-07-29T03:09:34;97352.09999999999;;;22.54;76.989
24868;BME280;12941;48.698;9.310;2023-07-29T03:10:34;97352.9;;;22.54;77.233
24868;BME280;12941;48.698;9.310;2023-07-29T03:11:34;97354.7;;;22.54;77.121
24868;BME280;12941;48.698;9.310;2023-07-29T03:12:34;97354.7;;;22.54;77.11
24868;BME280;12941;48.698;9.310;2023-07-29T03:13:39;97358.1;;;22.54;77.09
24868;BME280;12941;48.698;9.310;2023-07-29T03:14:47;97352.09999999999;;;22.54;77.176
24868;BME280;12941;48.698;9.310;2023-07-29T03:15:49;97355.5;;;22.54;77.156
24868;BME280;12941;48.698;9.310;2023-07-29T03:16:49;97349.40000000001;;;22.54;77.507
24868;BME280;12941;48.698;9.310;2023-07-29T03:17:49;97353.7;;;22.55;77.079
24868;BME280;12941;48.698;9.310;2023-07-29T03:18:54;97352.09999999999;;;22.54;77.176
24868;BME280;12941;48.698;9.310;2023-07-29T03:19:59;97352.09999999999;;;22.54;77.088
24868;BME280;12941;48.698;9.310;2023-07-29T03:21:04;97341.6;;;22.54;77.044
24868;BME280;12941;48.698;9.310;2023-07-29T03:22:04;97340;;;22.53;77.064
24868;BME280;12941;48.698;9.310;2023-07-29T03:23:09;97341.6;;;22.54;77.132
24868;BME280;12941;48.698;9.310;2023-07-29T03:24:14;97342.4;;;22.54;77.09
24868;BME280;12941;48.698;9.310;2023-07-29T03:25:19;97343.2;;;22.55;77.046
24868;BME280;12941;48.698;9.310;2023-07-29T03:26:24;97336.40000000001;;;22.54;76.989
24868;BME280;12941;48.698;9.310;2023-07-29T03:27:29;97332;;;22.54;77.023
24868;BME280;12941;48.698;9.310;2023-07-29T03:28:35;97333.6;;;22.55;77.091
24868;BME280;12941;48.698;9.310;2023-07-29T03:29:39;97329.2;;;22.56;77.113
24868;BME280;12941;48.698;9.310;2023-07-29T03:30:39;97335.40000000001;;;22.55;77.067
24868;BME280;12941;48.698;9.310;2023-07-29T03:31:44;97325.9;;;22.54;77.088
24868;BME280;12941;48.698;9.310;2023-07-29T03:32:49;97322.7;;;22.52;76.82
24868;BME280;12941;48.698;9.310;2023-07-29T03:33:54;97326.3;;;22.51;76.984
24868;BME280;12941;48.698;9.310;2023-07-29T03:34:59;97326.3;;;22.51;77.028
24868;BME280;12941;48.698;9.310;2023-07-29T03:35:59;97331.8;;;22.48;77.101
24868;BME280;12941;48.698;9.310;2023-07-29T03:37:00;97322.7;;;22.43;77.248
24868;BME280;12941;48.698;9.310;2023-07-29T03:38:04;97325.3;;;22.43;77.446
24868;BME280;12941;48.698;9.310;2023-07-29T03:39:09;97324.5;;;22.43;77.434
24868;BME280;12941;48.698;9.310;2023-07-29T03:40:14;97323.7;;;22.42;77.719
24868;BME280;12941;48.698;9.310;2023-07-29T03:41:14;97334.1;;;22.42;77.719
24868;BME280;12941;48.698;9.310;2023-07-29T03:42:14;97336.2;;;22.4;77.639
24868;BME280;12941;48.698;9.310;2023-07-29T03:43:14;97337.8;;;22.41;77.629
24868;BME280;12941;48.698;9.310;2023-07-29T03:44:19;97337.09999999999;;;22.39;77.735
24868;BME280;12941;48.698;9.310;2023-07-29T03:45:24;97329.3;;;22.39;77.802
24868;BME280;12941;48.698;9.310;2023-07-29T03:46:24;97339.70000000001;;;22.39;77.779
24868;BME280;12941;48.698;9.310;2023-07-29T03:47:29;97338.8;;;22.4;78.497
24868;BME280;12941;48.698;9.310;2023-07-29T03:48:29;97345;;;22.39;77.967
24868;BME280;12941;48.698;9.310;2023-07-29T03:49:34;97345;;;22.39;77.758
24868;BME280;12941;48.698;9.310;2023-07-29T03:50:35;97338.09999999999;;;22.38;77.569
24868;BME280;12941;48.698;9.310;2023-07-29T03:51:39;97346.1;;;22.37;77.72
24868;BME280;12941;48.698;9.310;2023-07-29T03:52:45;97341.09999999999;;;22.35;77.838
24868;BME280;12941;48.698;9.310;2023-07-29T03:53:45;97347.1;;;22.36;78.114
24868;BME280;12941;48.698;9.310;2023-07-29T03:54:49;97340.09999999999;;;22.36;78.193
24868;BME280;12941;48.698;9.310;2023-07-29T03:55:50;97340.09999999999;;;22.36;77.907
24868;BME280;12941;48.698;9.310;2023-07-29T03:56:54;97338.09999999999;;;22.38;77.822
24868;BME280;12941;48.698;9.310;2023-07-29T03:57:55;97336.2;;;22.4;77.881
24868;BME280;12941;48.698;9.310;2023-07-29T03:59:01;97331.5;;;22.42;77.84
24868;BME280;12941;48.698;9.310;2023-07-29T04:00:00;97341;;;22.43;77.92
24868;BME280;12941;48.698;9.310;2023-07-29T04:01:00;97335;;;22.43;78.051
24868;BME280;12941;48.698;9.310;2023-07-29T04:02:05;97327.09999999999;;;22.43;78.039
24868;BME280;12941;48.698;9.310;2023-07-29T04:03:10;97327;;;22.44;78.02
24868;BME280;12941;48.698;9.310;2023-07-29T04:04:10;97329.4;;;22.46;78.012
24868;BME280;12941;48.698;9.310;2023-07-29T04:05:10;97331.2;;;22.45;77.879
24868;BME280;12941;48.698;9.310;2023-07-29T04:06:10;97339;;;22.45;77.692
24868;BME280;12941;48.698;9.310;2023-07-29T04:07:14;97337.40000000001;;;22.44;77.579
24868;BME280;12941;48.698;9.310;2023-07-29T04:08:20;97337.40000000001;;;22.44;77.623
24868;BME280;12941;48.698;9.310;2023-07-29T04:09:20;97337.40000000001;;;22.44;77.678
24868;BME280;12941;48.698;9.310;2023-07-29T04:10:25;97332.2;;;22.44;77.546
24868;BME280;12941;48.698;9.310;2023-07-29T04:11:25;97341;;;22.43;77.744
24868;BME280;12941;48.698;9.310;2023-07-29T04:12:30;97335;;;22.43;78.139
24868;BME280;12941;48.698;9.310;2023-07-29T04:13:30;97337.40000000001;;;22.44;77.942
24868;BME280;12941;48.698;9.310;2023-07-29T04:14:35;97334;;;22.44;77.777
24868;BME280;12941;48.698;9.310;2023-07-29T04:15:40;97334.79999999999;;;22.44;77.854
24868;BME280;12941;48.698;9.310;2023-07-29T04:16:45;97339.20000000001;;;22.44;77.909
24868;BME280;12941;48.698;9.310;2023-07-29T04:17:45;97328.9;;;22.42;78.016
24868;BME280;12941;48.698;9.310;2023-07-29T04:18:45;97335.79999999999;;;22.43;77.832
24868;BME280;12941;48.698;9.310;2023-07-29T04:19:50;97320.1;;;22.43;77.744
24868;BME280;12941;48.698;9.310;2023-07-29T04:20:50;97326.59999999999;;;22.48;77.816
24868;BME280;12941;48.698;9.310;2023-07-29T04:21:50;97332.5;;;22.5;77.765
24868;BME280;12941;48.698;9.310;2023-07-29T04:22:55;97324;;;22.48;77.739
24868;BME280;12941;48.698;9.310;2023-07-29T04:23:55;97331.2;;;22.45;77.736
24868;BME280;12941;48.698;9.310;2023-07-29T04:25:00;97332.2;;;22.44;77.788
24868;BME280;12941;48.698;9.310;2023-07-29T04:26:05;97318.5;;;22.42;78.082
24868;BME280;12941;48.698;9.310;2023-07-29T04:27:05;97330.5;;;22.43;78.394
24868;BME280;12941;48.698;9.310;2023-07-29T04:28:10;97319.9;;;22.45;78.307
24868;BME280;12941;48.698;9.310;2023-07-29T04:29:10;97316.5;;;22.44;78.174
24868;BME280;12941;48.698;9.310;2023-07-29T04:30:15;97319.8;;;22.46;78.1
24868;BME280;12941;48.698;9.310;2023-07-29T04:31:15;97318.8;;;22.48;78.19
24868;BME280;12941;48.698;9.310;2023-07-29T04:32:20;97322;;;22.5;78.183
24868;BME280;12941;48.698;9.310;2023-07-29T04:33:20;97326.3;;;22.51;78.107
24868;BME280;12941;48.698;9.310;2023-07-29T04:34:20;97336.7;;;22.51;78.03
24868;BME280;12941;48.698;9.310;2023-07-29T04:35:25;97336.40000000001;;;22.54;77.771
24868;BME280;12941;48.698;9.310;2023-07-29T04:36:25;97333.8;;;22.54;77.694
24868;BME280;12941;48.698;9.310;2023-07-29T04:37:30;97342.6;;;22.53;77.78
24868;BME280;12941;48.698;9.310;2023-07-29T04:38:36;97332;;;22.54;77.916
24868;BME280;12941;48.698;9.310;2023-07-29T04:39:40;97334.40000000001;;;22.56;78.127
24868;BME280;12941;48.698;9.310;2023-07-29T04:40:45;97333.4;;;22.57;78.359
24868;BME280;12941;48.698;9.310;2023-07-29T04:41:45;97330.8;;;22.57;78.437
24868;BME280;12941;48.698;9.310;2023-07-29T04:42:45;97340.9;;;22.6;78.587
24868;BME280;12941;48.698;9.310;2023-07-29T04:43:50;97337.3;;;22.61;78.644
24868;BME280;12941;48.698;9.310;2023-07-29T04:44:50;97342.5;;;22.61;78.6
24868;BME280;12941;48.698;9.310;2023-07-29T04:45:56;97356.4;;;22.61;78.6
24868;BME280;12941;48.698;9.310;2023-07-29T04:47:00;97363.5;;;22.61;78.644
24868;BME280;12941;48.698;9.310;2023-07-29T04:48:05;97372.90000000001;;;22.62;78.932
24868;BME280;12941;48.698;9.310;2023-07-29T04:49:05;97381.6;;;22.62;79.218
24868;BME280;12941;48.698;9.310;2023-07-29T04:50:10;97394.5;;;22.64;79.485
24868;BME280;12941;48.698;9.310;2023-07-29T04:51:10;97380.8;;;22.62;79.394
24868;BME280;12941;48.698;9.310;2023-07-29T04:52:10;97363.09999999999;;;22.64;78.351
24868;BME280;12941;48.698;9.310;2023-07-29T04:53:15;97348.1;;;22.66;77.66
24868;BME280;12941;48.698;9.310;2023-07-29T04:54:20;97349.40000000001;;;22.7;78.57
24868;BME280;12941;48.698;9.310;2023-07-29T04:55:20;97352.8;;;22.7;78.748
24868;BME280;12941;48.698;9.310;2023-07-29T04:56:20;97344.1;;;22.7;79.044
24868;BME280;12941;48.698;9.310;2023-07-29T04:57:25;97351;;;22.71;78.981
24868;BME280;12941;48.698;9.310;2023-07-29T04:58:25;97352.8;;;22.7;79.101
24868;BME280;12941;48.698;9.310;2023-07-29T04:59:30;97352;;;22.7;79.198
24868;BME280;12941;48.698;9.310;2023-07-29T05:00:35;97348.40000000001;;;22.71;79.312
24868;BME280;12941;48.698;9.310;2023-07-29T05:01:40;97356.2;;;22.71;79.433
24868;BME280;12941;48.698;9.310;2023-07-29T05:02:45;97357.2;;;22.7;79.484
24868;BME280;12941;48.698;9.310;2023-07-29T05:03:45;97352.09999999999;;;22.68;79.637
24868;BME280;12941;48.698;9.310;2023-07-29T05:04:50;97353;;;22.69;79.647
24868;BME280;12941;48.698;9.310;2023-07-29T05:05:55;97360.79999999999;;;22.69;79.824
24868;BME280;12941;48.698;9.310;2023-07-29T05:07:00;97359.2;;;22.68;79.812
24868;BME280;12941;48.698;9.310;2023-07-29T05:08:00;97366.8;;;22.69;79.825
24868;BME280;12941;48.698;9.310;2023-07-29T05:09:11;97359;;;22.69;80.167
24868;BME280;12941;48.698;9.310;2023-07-29T05:10:06;97361.6;;;22.69;80.409
24868;BME280;12941;48.698;9.310;2023-07-29T05:11:10;97355.6;;;22.69;79.78
24868;BME280;12941;48.698;9.310;2023-07-29T05:12:15;97357.2;;;22.7;79.848
24868;BME280;12941;48.698;9.310;2023-07-29T05:13:20;97362.40000000001;;;22.7;80.112
24868;BME280;12941;48.698;9.310;2023-07-29T05:14:25;97364.9;;;22.71;80.038
24868;BME280;12941;48.698;9.310;2023-07-29T05:15:25;97363.09999999999;;;22.72;79.928
24868;BME280;12941;48.698;9.310;2023-07-29T05:16:25;97361.40000000001;;;22.71;79.928
24868;BME280;12941;48.698;9.310;2023-07-29T05:17:30;97356.2;;;22.71;80.082
24868;BME280;12941;48.698;9.310;2023-07-29T05:18:35;97356.4;;;22.69;80.112
24868;BME280;12941;48.698;9.310;2023-07-29T05:19:40;97369.3;;;22.71;80.104
24868;BME280;12941;48.698;9.310;2023-07-29T05:20:46;97370.9;;;22.72;80.138
24868;BME280;12941;48.698;9.310;2023-07-29T05:21:50;97364.09999999999;;;22.71;80.148
24868;BME280;12941;48.698;9.310;2023-07-29T05:22:50;97359.6;;;22.71;80.104
24868;BME280;12941;48.698;9.310;2023-07-29T05:23:50;97359.6;;;22.71;80.071